createdAt,value
2023-02-14T00:00:57.053Z,26.60
2023-02-14T00:03:23.829Z,26.70
2023-02-14T00:05:50.440Z,26.60
2023-02-14T00:08:17.001Z,26.60
2023-02-14T00:10:43.566Z,26.60
2023-02-14T00:13:10.113Z,26.50
2023-02-14T00:15:36.661Z,26.50
2023-02-14T00:18:03.515Z,26.50
2023-02-14T00:20:30.117Z,26.50
2023-02-14T00:22:56.710Z,26.50
2023-02-14T00:25:23.398Z,26.50
2023-02-14T00:27:50.102Z,26.50
2023-02-14T00:30:16.764Z,26.50
2023-02-14T00:32:43.537Z,26.40
2023-02-14T00:35:10.797Z,26.50
2023-02-14T00:37:37.437Z,26.40
2023-02-14T00:40:05.521Z,26.40
2023-02-14T00:42:32.114Z,26.40
2023-02-14T00:44:58.742Z,26.40
2023-02-14T00:47:25.436Z,26.40
2023-02-14T00:49:52.037Z,26.40
2023-02-14T00:52:18.677Z,26.40
2023-02-14T00:54:45.289Z,26.40
2023-02-14T00:57:11.854Z,26.40
2023-02-14T00:59:38.445Z,26.40
2023-02-14T01:02:05.107Z,26.30
2023-02-14T01:04:31.768Z,26.30
2023-02-14T01:06:58.313Z,26.30
2023-02-14T01:09:25.435Z,26.30
2023-02-14T01:11:52.042Z,26.30
2023-02-14T01:14:18.645Z,26.30
2023-02-14T01:16:45.335Z,26.30
2023-02-14T01:19:11.995Z,26.30
2023-02-14T01:21:38.599Z,26.30
2023-02-14T01:24:07.865Z,26.20
2023-02-14T01:26:35.713Z,26.20
2023-02-14T01:29:04.091Z,26.20
2023-02-14T01:31:33.220Z,26.20
2023-02-14T01:34:00.543Z,26.20
2023-02-14T01:36:38.785Z,26.20
2023-02-14T01:39:08.398Z,26.20
2023-02-14T01:41:36.927Z,26.20
2023-02-14T01:44:08.221Z,26.20
2023-02-14T01:46:36.851Z,26.20
2023-02-14T01:49:12.372Z,26.20
2023-02-14T01:51:44.492Z,26.20
2023-02-14T01:54:11.986Z,26.10
2023-02-14T01:56:42.925Z,26.10
2023-02-14T01:59:12.824Z,26.10
2023-02-14T02:01:40.151Z,26.10
2023-02-14T02:04:15.909Z,26.10
2023-02-14T02:06:47.571Z,26.10
2023-02-14T02:09:21.955Z,26.10
2023-02-14T02:11:48.949Z,26.10
2023-02-14T02:14:21.304Z,26.10
2023-02-14T02:17:07.591Z,26.10
2023-02-14T02:20:11.709Z,26.10
2023-02-14T02:22:51.144Z,26.10
2023-02-14T02:25:42.575Z,26.10
2023-02-14T02:28:34.011Z,26.10
2023-02-14T02:31:21.795Z,26.10
2023-02-14T02:34:13.359Z,26.00
2023-02-14T02:37:17.219Z,26.10
2023-02-14T02:40:02.976Z,26.10
2023-02-14T02:43:06.169Z,26.00
2023-02-14T02:46:26.989Z,26.00
2023-02-14T02:49:06.466Z,26.00
2023-02-14T02:52:04.155Z,26.00
2023-02-14T02:54:44.923Z,26.00
2023-02-14T02:57:23.566Z,26.00
2023-02-14T02:59:53.543Z,26.00
2023-02-14T03:02:31.628Z,26.00
2023-02-14T03:05:01.422Z,25.90
2023-02-14T03:07:37.440Z,26.00
2023-02-14T03:10:12.739Z,26.00
2023-02-14T03:12:45.918Z,26.00
2023-02-14T03:15:27.344Z,26.00
2023-02-14T03:18:37.530Z,26.00
2023-02-14T03:21:27.451Z,25.90
2023-02-14T03:24:23.198Z,25.90
2023-02-14T03:27:09.989Z,25.90
2023-02-14T03:29:55.956Z,25.90
2023-02-14T03:32:33.778Z,25.90
2023-02-14T03:35:25.810Z,25.90
2023-02-14T03:37:59.852Z,25.90
2023-02-14T03:40:32.314Z,25.90
2023-02-14T03:43:05.801Z,25.90
2023-02-14T03:45:44.787Z,25.90
2023-02-14T03:48:13.873Z,25.80
2023-02-14T03:50:43.824Z,25.90
2023-02-14T03:53:12.581Z,25.90
2023-02-14T03:55:52.928Z,25.90
2023-02-14T03:58:47.985Z,25.80
2023-02-14T04:01:36.348Z,25.90
2023-02-14T04:04:05.600Z,25.90
2023-02-14T04:06:32.178Z,25.80
2023-02-14T04:08:58.820Z,25.80
2023-02-14T04:11:25.617Z,25.80
2023-02-14T04:13:52.166Z,25.90
2023-02-14T04:16:18.814Z,25.80
2023-02-14T04:19:04.173Z,25.80
2023-02-14T04:21:30.738Z,25.80
2023-02-14T04:23:57.292Z,25.80
2023-02-14T04:26:23.911Z,25.80
2023-02-14T04:28:50.465Z,25.80
2023-02-14T04:31:17.389Z,25.80
2023-02-14T04:33:45.929Z,25.90
2023-02-14T04:36:12.522Z,25.80
2023-02-14T04:38:39.102Z,25.80
2023-02-14T04:41:05.754Z,25.80
2023-02-14T04:43:32.297Z,25.80
2023-02-14T04:45:58.844Z,25.80
2023-02-14T04:48:25.496Z,25.80
2023-02-14T04:50:56.605Z,25.80
2023-02-14T04:53:23.253Z,25.90
2023-02-14T04:55:50.204Z,25.80
2023-02-14T04:58:17.312Z,25.80
2023-02-14T05:00:44.238Z,25.90
2023-02-14T05:03:10.898Z,25.80
2023-02-14T05:05:37.430Z,25.90
2023-02-14T05:08:05.208Z,25.90
2023-02-14T05:10:31.877Z,25.90
2023-02-14T05:12:58.427Z,26.00
2023-02-14T05:15:25.063Z,26.00
2023-02-14T05:17:51.633Z,26.10
2023-02-14T05:20:18.313Z,26.10
2023-02-14T05:22:44.877Z,26.10
2023-02-14T05:25:11.488Z,26.20
2023-02-14T05:27:38.063Z,26.30
2023-02-14T05:30:05.219Z,26.30
2023-02-14T05:32:31.820Z,26.30
2023-02-14T05:35:00.777Z,26.40
2023-02-14T05:37:27.645Z,26.40
2023-02-14T05:39:54.292Z,26.60
2023-02-14T05:42:21.074Z,26.60
2023-02-14T05:44:48.632Z,26.60
2023-02-14T05:47:15.306Z,26.60
2023-02-14T05:49:41.942Z,26.60
2023-02-14T05:52:08.502Z,26.70
2023-02-14T05:54:35.186Z,26.70
2023-02-14T05:57:01.785Z,26.70
2023-02-14T05:59:28.328Z,26.70
2023-02-14T06:01:55.001Z,26.80
2023-02-14T06:04:21.683Z,26.80
2023-02-14T06:06:48.298Z,26.90
2023-02-14T06:09:15.015Z,26.90
2023-02-14T06:11:41.712Z,26.90
2023-02-14T06:14:08.284Z,27.00
2023-02-14T06:16:34.935Z,27.00
2023-02-14T06:19:01.541Z,27.00
2023-02-14T06:21:28.105Z,27.00
2023-02-14T06:23:54.770Z,27.00
2023-02-14T06:26:21.341Z,27.00
2023-02-14T06:28:47.906Z,27.00
2023-02-14T06:31:18.469Z,27.00
2023-02-14T06:33:45.051Z,27.10
2023-02-14T06:36:12.072Z,27.10
2023-02-14T06:38:38.722Z,27.10
2023-02-14T06:41:06.786Z,27.10
2023-02-14T06:43:33.725Z,27.10
2023-02-14T06:46:00.829Z,27.10
2023-02-14T06:48:27.647Z,27.10
2023-02-14T06:50:54.261Z,27.10
2023-02-14T06:53:21.436Z,27.20
2023-02-14T06:55:48.116Z,27.20
2023-02-14T06:58:14.993Z,27.20
2023-02-14T07:00:41.808Z,27.20
2023-02-14T07:03:08.945Z,27.20
2023-02-14T07:05:36.397Z,27.30
2023-02-14T07:08:03.443Z,27.30
2023-02-14T07:10:30.059Z,27.20
2023-02-14T07:12:56.635Z,27.30
2023-02-14T07:15:23.197Z,27.30
2023-02-14T07:17:49.762Z,27.30
2023-02-14T07:20:18.098Z,27.40
2023-02-14T07:22:45.331Z,27.40
2023-02-14T07:25:12.305Z,27.40
2023-02-14T07:27:39.634Z,27.40
2023-02-14T07:30:08.009Z,27.40
2023-02-14T07:32:34.841Z,27.40
2023-02-14T07:35:01.376Z,27.50
2023-02-14T07:37:28.003Z,27.50
2023-02-14T07:39:54.551Z,27.50
2023-02-14T07:42:21.131Z,27.60
2023-02-14T07:44:48.002Z,27.60
2023-02-14T07:47:14.553Z,27.60
2023-02-14T07:49:41.200Z,27.60
2023-02-14T07:52:08.586Z,27.60
2023-02-14T07:54:35.207Z,27.60
2023-02-14T07:57:01.834Z,27.60
2023-02-14T07:59:28.573Z,27.70
2023-02-14T08:01:55.291Z,27.60
2023-02-14T08:04:25.857Z,27.60
2023-02-14T08:06:53.795Z,27.70
2023-02-14T08:09:27.234Z,27.70
2023-02-14T08:12:17.335Z,27.70
2023-02-14T08:14:44.577Z,27.70
2023-02-14T08:17:13.295Z,27.70
2023-02-14T08:19:40.601Z,27.80
2023-02-14T08:22:08.106Z,27.90
2023-02-14T08:24:34.756Z,28.00
2023-02-14T08:27:01.404Z,28.00
2023-02-14T08:29:28.005Z,28.00
2023-02-14T08:31:54.629Z,28.00
2023-02-14T08:34:21.272Z,28.10
2023-02-14T08:36:47.910Z,28.10
2023-02-14T08:39:14.495Z,28.10
2023-02-14T08:41:41.088Z,28.10
2023-02-14T08:44:07.713Z,28.20
2023-02-14T08:46:34.378Z,28.30
2023-02-14T08:49:01.042Z,28.20
2023-02-14T08:51:27.695Z,28.40
2023-02-14T08:53:55.796Z,28.30
2023-02-14T08:56:22.719Z,28.30
2023-02-14T08:58:53.000Z,28.30
2023-02-14T09:01:19.737Z,28.30
2023-02-14T09:03:46.498Z,28.40
2023-02-14T09:06:16.990Z,28.40
2023-02-14T09:08:44.488Z,28.40
2023-02-14T09:11:14.395Z,28.40
2023-02-14T09:13:42.748Z,28.50
2023-02-14T09:16:11.609Z,28.50
2023-02-14T09:18:38.761Z,28.60
2023-02-14T09:21:11.140Z,28.70
2023-02-14T09:23:38.394Z,28.70
2023-02-14T09:26:07.768Z,28.80
2023-02-14T09:28:34.815Z,29.00
2023-02-14T09:31:13.782Z,29.10
2023-02-14T09:33:41.437Z,29.20
2023-02-14T09:36:20.946Z,29.30
2023-02-14T09:38:47.630Z,29.50
2023-02-14T09:41:52.185Z,29.60
2023-02-14T09:44:41.439Z,29.80
2023-02-14T09:47:32.835Z,30.00
2023-02-14T09:49:59.878Z,30.10
2023-02-14T09:52:29.948Z,30.30
2023-02-14T09:55:01.211Z,30.40
2023-02-14T09:57:40.276Z,30.70
2023-02-14T10:00:27.144Z,30.70
2023-02-14T10:03:21.821Z,30.90
2023-02-14T10:06:30.141Z,31.00
2023-02-14T10:09:13.782Z,31.20
2023-02-14T10:11:43.413Z,31.40
2023-02-14T10:14:17.046Z,31.50
2023-02-14T10:16:55.501Z,31.60
2023-02-14T10:19:36.871Z,31.70
2023-02-14T10:22:14.587Z,31.90
2023-02-14T10:24:57.305Z,31.90
2023-02-14T10:27:36.072Z,32.00
2023-02-14T10:30:11.768Z,32.10
2023-02-14T10:32:57.236Z,32.20
2023-02-14T10:35:31.554Z,32.20
2023-02-14T10:38:24.197Z,32.20
2023-02-14T10:41:18.752Z,32.20
2023-02-14T10:43:57.459Z,32.30
2023-02-14T10:46:31.894Z,32.20
2023-02-14T10:49:29.605Z,32.20
2023-02-14T10:52:20.333Z,32.20
2023-02-14T10:54:57.713Z,32.10
2023-02-14T10:57:34.054Z,32.00
2023-02-14T11:00:02.246Z,31.90
2023-02-14T11:02:36.853Z,31.80
2023-02-14T11:05:05.488Z,31.80
2023-02-14T11:07:32.120Z,31.70
2023-02-14T11:09:58.761Z,31.60
2023-02-14T11:12:40.065Z,31.60
2023-02-14T11:15:24.316Z,31.50
2023-02-14T11:18:32.672Z,31.50
2023-02-14T11:21:10.411Z,31.40
2023-02-14T11:23:48.454Z,31.40
2023-02-14T11:26:30.695Z,31.30
2023-02-14T11:29:03.613Z,31.40
2023-02-14T11:31:33.929Z,31.30
2023-02-14T11:34:04.836Z,31.40
2023-02-14T11:36:33.610Z,31.40
2023-02-14T11:39:34.598Z,31.40
2023-02-14T11:42:04.750Z,31.40
2023-02-14T11:44:34.091Z,31.50
2023-02-14T11:47:41.282Z,31.50
2023-02-14T11:50:22.423Z,31.60
2023-02-14T11:52:52.674Z,31.60
2023-02-14T11:55:35.242Z,31.70
2023-02-14T11:58:05.297Z,31.70
2023-02-14T12:00:32.506Z,31.70
2023-02-14T12:03:02.887Z,31.80
2023-02-14T12:05:36.733Z,31.90
2023-02-14T12:08:06.395Z,31.90
2023-02-14T12:10:35.383Z,32.00
2023-02-14T12:13:07.974Z,32.00
2023-02-14T12:15:40.314Z,32.10
2023-02-14T12:18:28.687Z,32.10
2023-02-14T12:21:19.648Z,32.20
2023-02-14T12:23:49.666Z,32.20
2023-02-14T12:26:46.361Z,32.30
2023-02-14T12:29:14.126Z,32.40
2023-02-14T12:31:42.693Z,32.40
2023-02-14T12:34:12.938Z,32.40
2023-02-14T12:36:59.350Z,32.50
2023-02-14T12:39:49.111Z,32.50
2023-02-14T12:42:42.779Z,32.50
2023-02-14T12:45:24.446Z,32.60
2023-02-14T12:48:25.231Z,32.60
2023-02-14T12:51:03.016Z,32.60
2023-02-14T12:53:41.830Z,32.70
2023-02-14T12:56:39.138Z,32.70
2023-02-14T12:59:40.592Z,32.70
2023-02-14T13:02:36.089Z,32.80
2023-02-14T13:05:15.937Z,32.80
2023-02-14T13:07:57.835Z,32.80
2023-02-14T13:10:51.234Z,32.80
2023-02-14T13:13:46.920Z,32.90
2023-02-14T13:16:29.374Z,32.80
2023-02-14T13:19:05.982Z,32.90
2023-02-14T13:21:36.621Z,32.90
2023-02-14T13:24:21.106Z,32.90
2023-02-14T13:26:53.859Z,32.90
2023-02-14T13:29:26.055Z,32.90
2023-02-14T13:31:58.872Z,32.90
2023-02-14T13:34:35.483Z,32.90
2023-02-14T13:37:06.437Z,32.90
2023-02-14T13:39:55.202Z,33.00
2023-02-14T13:42:46.567Z,32.90
2023-02-14T13:45:40.405Z,33.00
2023-02-14T13:48:28.525Z,32.90
2023-02-14T13:51:06.275Z,32.90
2023-02-14T13:53:40.663Z,32.90
2023-02-14T13:56:13.215Z,32.90
2023-02-14T13:58:54.254Z,32.90
2023-02-14T14:01:51.592Z,32.90
2023-02-14T14:04:33.201Z,32.90
2023-02-14T14:07:02.733Z,32.90
2023-02-14T14:09:44.116Z,32.80
2023-02-14T14:12:29.280Z,32.90
2023-02-14T14:15:04.745Z,32.80
2023-02-14T14:17:40.003Z,32.80
2023-02-14T14:20:31.332Z,32.80
2023-02-14T14:23:00.090Z,32.80
2023-02-14T14:25:41.565Z,32.80
2023-02-14T14:28:13.147Z,32.70
2023-02-14T14:30:44.797Z,32.70
2023-02-14T14:33:34.244Z,32.70
2023-02-14T14:36:08.472Z,32.60
2023-02-14T14:38:46.965Z,32.50
2023-02-14T14:41:13.880Z,32.60
2023-02-14T14:43:41.307Z,32.50
2023-02-14T14:46:11.608Z,32.50
2023-02-14T14:48:42.577Z,32.40
2023-02-14T14:51:20.012Z,32.30
2023-02-14T14:54:03.240Z,32.30
2023-02-14T14:56:44.629Z,32.30
2023-02-14T14:59:35.315Z,32.20
2023-02-14T15:02:03.594Z,32.20
2023-02-14T15:04:35.449Z,32.10
2023-02-14T15:07:30.410Z,32.10
2023-02-14T15:09:57.044Z,32.00
2023-02-14T15:13:02.717Z,31.90
2023-02-14T15:15:30.631Z,31.90
2023-02-14T15:17:57.248Z,31.80
2023-02-14T15:20:25.401Z,31.80
2023-02-14T15:22:53.591Z,31.70
2023-02-14T15:25:24.992Z,31.60
2023-02-14T15:27:51.768Z,31.60
2023-02-14T15:30:29.011Z,31.50
2023-02-14T15:32:56.374Z,31.40
2023-02-14T15:35:29.484Z,31.40
2023-02-14T15:37:59.805Z,31.30
2023-02-14T15:40:31.070Z,31.20
2023-02-14T15:43:25.052Z,31.10
2023-02-14T15:45:57.920Z,31.10
2023-02-14T15:48:30.105Z,31.00
2023-02-14T15:50:59.693Z,31.00
2023-02-14T15:53:33.674Z,31.00
2023-02-14T15:56:11.155Z,30.90
2023-02-14T15:58:40.132Z,30.80
2023-02-14T16:01:07.655Z,30.80
2023-02-14T16:03:37.395Z,30.80
2023-02-14T16:06:05.072Z,30.80
2023-02-14T16:08:34.679Z,30.70
2023-02-14T16:11:05.022Z,30.70
2023-02-14T16:13:34.776Z,30.60
2023-02-14T16:16:07.636Z,30.60
2023-02-14T16:18:44.210Z,30.60
2023-02-14T16:21:21.523Z,30.50
2023-02-14T16:24:10.455Z,30.50
2023-02-14T16:26:42.384Z,30.40
2023-02-14T16:29:14.789Z,30.40
2023-02-14T16:32:06.257Z,30.40
2023-02-14T16:34:32.228Z,30.30
2023-02-14T16:37:05.615Z,30.30
2023-02-14T16:39:32.262Z,30.20
2023-02-14T16:41:59.003Z,30.20
2023-02-14T16:44:25.762Z,30.10
2023-02-14T16:46:52.359Z,30.10
2023-02-14T16:49:18.942Z,30.10
2023-02-14T16:51:47.548Z,30.10
2023-02-14T16:54:25.033Z,30.00
2023-02-14T16:56:59.585Z,30.00
2023-02-14T16:59:26.150Z,30.00
2023-02-14T17:01:53.190Z,30.00
2023-02-14T17:04:19.798Z,30.10
2023-02-14T17:06:52.162Z,30.10
2023-02-14T17:09:24.219Z,30.10
2023-02-14T17:11:55.003Z,30.10
2023-02-14T17:14:26.425Z,30.10
2023-02-14T17:16:54.415Z,30.10
2023-02-14T17:19:21.015Z,30.10
2023-02-14T17:21:48.646Z,30.10
2023-02-14T17:24:15.754Z,30.10
2023-02-14T17:26:42.326Z,30.10
2023-02-14T17:29:08.910Z,30.10
2023-02-14T17:31:35.539Z,30.10
2023-02-14T17:34:02.414Z,30.10
2023-02-14T17:36:30.143Z,30.10
2023-02-14T17:38:56.696Z,30.10
2023-02-14T17:41:25.205Z,30.10
2023-02-14T17:43:54.693Z,30.10
2023-02-14T17:46:22.035Z,30.10
2023-02-14T17:48:49.162Z,30.10
2023-02-14T17:51:20.212Z,30.10
2023-02-14T17:53:48.044Z,30.10
2023-02-14T17:56:17.995Z,30.10
2023-02-14T17:58:47.559Z,30.10
2023-02-14T18:01:15.792Z,30.10
2023-02-14T18:03:42.378Z,30.10
2023-02-14T18:06:11.321Z,30.10
2023-02-14T18:08:40.774Z,30.00
2023-02-14T18:11:10.045Z,30.00
2023-02-14T18:13:37.390Z,30.00
2023-02-14T18:16:06.428Z,30.00
2023-02-14T18:18:33.408Z,30.00
2023-02-14T18:21:02.468Z,30.10
2023-02-14T18:23:30.655Z,30.00
2023-02-14T18:25:59.610Z,30.00
2023-02-14T18:28:27.089Z,30.00
2023-02-14T18:30:54.680Z,29.90
2023-02-14T18:33:21.365Z,29.90
2023-02-14T18:35:47.925Z,29.90
2023-02-14T18:38:14.919Z,29.90
2023-02-14T18:40:42.741Z,29.90
2023-02-14T18:43:09.310Z,29.90
2023-02-14T18:45:37.671Z,29.90
2023-02-14T18:48:05.349Z,29.90
2023-02-14T18:50:33.516Z,29.90
2023-02-14T18:53:00.100Z,29.90
2023-02-14T18:55:27.450Z,29.80
2023-02-14T18:57:54.183Z,29.80
2023-02-14T19:00:21.773Z,29.80
2023-02-14T19:02:48.598Z,29.80
2023-02-14T19:05:15.219Z,29.80
2023-02-14T19:07:41.770Z,29.60
2023-02-14T19:10:09.245Z,29.70
2023-02-14T19:12:35.792Z,29.70
2023-02-14T19:15:03.372Z,29.70
2023-02-14T19:17:30.824Z,29.70
2023-02-14T19:19:57.433Z,29.70
2023-02-14T19:22:24.061Z,29.70
2023-02-14T19:24:53.773Z,29.60
2023-02-14T19:27:21.435Z,29.60
2023-02-14T19:29:48.270Z,29.80
2023-02-14T19:32:15.211Z,29.60
2023-02-14T19:34:41.858Z,29.60
2023-02-14T19:37:08.471Z,29.60
2023-02-14T19:39:35.038Z,29.60
2023-02-14T19:42:01.886Z,29.60
2023-02-14T19:44:29.945Z,29.50
2023-02-14T19:46:59.852Z,29.60
2023-02-14T19:49:28.109Z,29.50
2023-02-14T19:51:55.299Z,29.50
2023-02-14T19:54:22.789Z,29.50
2023-02-14T19:56:49.556Z,29.50
2023-02-14T19:59:19.720Z,29.50
2023-02-14T20:01:48.801Z,29.50
2023-02-14T20:04:21.201Z,29.50
2023-02-14T20:06:48.736Z,29.50
2023-02-14T20:09:15.931Z,29.40
2023-02-14T20:11:51.292Z,29.50
2023-02-14T20:14:24.180Z,29.40
2023-02-14T20:16:51.866Z,29.50
2023-02-14T20:19:21.089Z,29.50
2023-02-14T20:21:49.964Z,29.40
2023-02-14T20:24:25.975Z,29.40
2023-02-14T20:26:53.130Z,29.40
2023-02-14T20:29:21.465Z,29.40
2023-02-14T20:31:50.899Z,29.40
2023-02-14T20:34:18.719Z,29.40
2023-02-14T20:36:49.396Z,29.40
2023-02-14T20:39:16.116Z,29.40
2023-02-14T20:41:46.257Z,29.40
2023-02-14T20:44:15.376Z,29.40
2023-02-14T20:46:41.921Z,29.30
2023-02-14T20:49:10.048Z,29.40
2023-02-14T20:51:38.679Z,29.40
2023-02-14T20:54:05.405Z,29.40
2023-02-14T20:56:32.820Z,29.30
2023-02-14T20:59:03.147Z,29.40
2023-02-14T21:01:29.997Z,29.30
2023-02-14T21:03:56.701Z,29.40
2023-02-14T21:06:29.598Z,29.30
2023-02-14T21:08:56.845Z,29.30
2023-02-14T21:11:24.987Z,29.30
2023-02-14T21:13:58.067Z,29.30
2023-02-14T21:16:26.209Z,29.30
2023-02-14T21:18:58.747Z,29.30
2023-02-14T21:21:29.912Z,29.30
2023-02-14T21:23:56.478Z,29.20
2023-02-14T21:26:23.053Z,29.20
2023-02-14T21:28:49.678Z,29.20
2023-02-14T21:31:20.644Z,29.20
2023-02-14T21:33:53.257Z,29.20
2023-02-14T21:36:21.693Z,29.20
2023-02-14T21:38:48.717Z,29.20
2023-02-14T21:41:20.807Z,29.20
2023-02-14T21:43:50.072Z,29.20
2023-02-14T21:46:18.894Z,29.20
2023-02-14T21:49:04.944Z,29.20
2023-02-14T21:51:32.449Z,29.20
2023-02-14T21:53:59.816Z,29.20
2023-02-14T21:56:27.820Z,29.20
2023-02-14T21:58:55.738Z,29.20
2023-02-14T22:01:25.305Z,29.20
2023-02-14T22:03:52.559Z,29.30
2023-02-14T22:06:19.988Z,29.20
2023-02-14T22:08:46.882Z,29.10
2023-02-14T22:11:15.337Z,29.10
2023-02-14T22:13:42.740Z,29.10
2023-02-14T22:16:15.456Z,29.10
2023-02-14T22:18:42.852Z,29.10
2023-02-14T22:21:14.379Z,29.10
2023-02-14T22:23:41.034Z,29.00
2023-02-14T22:26:28.144Z,29.00
2023-02-14T22:28:57.087Z,29.00
2023-02-14T22:31:25.864Z,29.00
2023-02-14T22:33:53.046Z,28.90
2023-02-14T22:36:20.077Z,28.90
2023-02-14T22:38:46.656Z,28.90
2023-02-14T22:41:16.160Z,28.90
2023-02-14T22:43:43.540Z,28.90
2023-02-14T22:46:16.976Z,28.80
2023-02-14T22:48:44.292Z,28.80
2023-02-14T22:51:21.811Z,28.80
2023-02-14T22:53:49.639Z,28.70
2023-02-14T22:56:22.174Z,28.70
2023-02-14T22:58:48.794Z,28.70
2023-02-14T23:01:18.025Z,28.70
2023-02-14T23:03:45.504Z,28.60
2023-02-14T23:06:13.075Z,28.60
2023-02-14T23:08:44.420Z,28.70
2023-02-14T23:11:16.648Z,28.50
2023-02-14T23:14:01.942Z,28.50
2023-02-14T23:16:47.424Z,28.50
2023-02-14T23:19:38.759Z,28.40
2023-02-14T23:22:08.814Z,28.40
2023-02-14T23:24:35.416Z,28.40
2023-02-14T23:27:02.507Z,28.30
2023-02-14T23:29:29.604Z,28.30
2023-02-14T23:31:56.516Z,28.30
2023-02-14T23:34:28.484Z,28.30
2023-02-14T23:36:55.427Z,28.30
2023-02-14T23:39:22.221Z,28.20
2023-02-14T23:41:49.030Z,28.40
2023-02-14T23:44:21.384Z,28.20
2023-02-14T23:46:49.712Z,28.20
2023-02-14T23:49:16.805Z,28.10
2023-02-14T23:51:44.776Z,28.10
2023-02-14T23:54:11.958Z,28.10
2023-02-14T23:56:39.465Z,28.10
2023-02-14T23:59:07.034Z,28.10
